sensor_id;sensor_type;location;lat;lon;timestamp;temperature;humidity
5924;DHT22;2987;50.884;14.818;2022-11-20T00:01:36;-3.60;99.90
5924;DHT22;2987;50.884;14.818;2022-11-20T00:04:02;-3.60;99.90
5924;DHT22;2987;50.884;14.818;2022-11-20T00:06:29;-3.60;99.90
5924;DHT22;2987;50.884;14.818;2022-11-20T00:08:57;-3.60;99.90
5924;DHT22;2987;50.884;14.818;2022-11-20T00:11:25;-3.80;99.90
5924;DHT22;2987;50.884;14.818;2022-11-20T00:13:58;-3.80;99.90
5924;DHT22;2987;50.884;14.818;2022-11-20T00:16:27;-3.70;99.90
5924;DHT22;2987;50.884;14.818;2022-11-20T00:18:55;-3.50;99.90
5924;DHT22;2987;50.884;14.818;2022-11-20T00:21:23;-3.80;99.90
5924;DHT22;2987;50.884;14.818;2022-11-20T00:23:51;-3.80;99.90
5924;DHT22;2987;50.884;14.818;2022-11-20T00:26:19;-3.80;99.90
5924;DHT22;2987;50.884;14.818;2022-11-20T00:28:52;-3.90;99.90
5924;DHT22;2987;50.884;14.818;2022-11-20T00:31:18;-4.10;99.90
5924;DHT22;2987;50.884;14.818;2022-11-20T00:33:45;-4.10;99.90
5924;DHT22;2987;50.884;14.818;2022-11-20T00:36:15;-4.10;99.90
5924;DHT22;2987;50.884;14.818;2022-11-20T00:38:42;-4.10;99.90
5924;DHT22;2987;50.884;14.818;2022-11-20T00:41:11;-4.20;99.90
5924;DHT22;2987;50.884;14.818;2022-11-20T00:43:38;-4.30;99.90
5924;DHT22;2987;50.884;14.818;2022-11-20T00:46:06;-4.30;99.90
5924;DHT22;2987;50.884;14.818;2022-11-20T00:48:33;-4.40;99.90
5924;DHT22;2987;50.884;14.818;2022-11-20T00:50:59;-4.20;99.90
5924;DHT22;2987;50.884;14.818;2022-11-20T00:53:26;-4.00;99.90
5924;DHT22;2987;50.884;14.818;2022-11-20T00:55:58;-4.50;99.90
5924;DHT22;2987;50.884;14.818;2022-11-20T00:58:27;-4.40;99.90
5924;DHT22;2987;50.884;14.818;2022-11-20T01:01:00;-4.40;99.90
5924;DHT22;2987;50.884;14.818;2022-11-20T01:03:30;-4.30;99.90
5924;DHT22;2987;50.884;14.818;2022-11-20T01:06:00;-4.50;99.90
5924;DHT22;2987;50.884;14.818;2022-11-20T01:08:28;-4.20;99.90
5924;DHT22;2987;50.884;14.818;2022-11-20T01:10:59;-4.40;99.90
5924;DHT22;2987;50.884;14.818;2022-11-20T01:13:25;-4.50;99.90
5924;DHT22;2987;50.884;14.818;2022-11-20T01:16:09;-4.70;99.90
5924;DHT22;2987;50.884;14.818;2022-11-20T01:18:38;-4.70;99.90
5924;DHT22;2987;50.884;14.818;2022-11-20T01:21:08;-4.60;99.90
5924;DHT22;2987;50.884;14.818;2022-11-20T01:23:36;-4.50;99.90
5924;DHT22;2987;50.884;14.818;2022-11-20T01:26:05;-4.70;99.90
5924;DHT22;2987;50.884;14.818;2022-11-20T01:28:33;-4.50;99.90
5924;DHT22;2987;50.884;14.818;2022-11-20T01:30:59;-4.50;99.90
5924;DHT22;2987;50.884;14.818;2022-11-20T01:33:27;-4.50;99.90
5924;DHT22;2987;50.884;14.818;2022-11-20T01:35:53;-4.30;99.90
5924;DHT22;2987;50.884;14.818;2022-11-20T01:38:29;-4.40;99.90
5924;DHT22;2987;50.884;14.818;2022-11-20T01:40:55;-4.20;99.90
5924;DHT22;2987;50.884;14.818;2022-11-20T01:43:21;-4.30;99.90
5924;DHT22;2987;50.884;14.818;2022-11-20T01:45:58;-4.30;99.90
5924;DHT22;2987;50.884;14.818;2022-11-20T01:48:30;-4.30;99.90
5924;DHT22;2987;50.884;14.818;2022-11-20T01:50:58;-4.30;99.90
5924;DHT22;2987;50.884;14.818;2022-11-20T01:53:32;-4.40;99.90
5924;DHT22;2987;50.884;14.818;2022-11-20T01:56:02;-4.40;99.90
5924;DHT22;2987;50.884;14.818;2022-11-20T01:58:35;-4.30;99.90
5924;DHT22;2987;50.884;14.818;2022-11-20T02:01:02;-4.50;99.90
5924;DHT22;2987;50.884;14.818;2022-11-20T02:03:28;-4.50;99.90
5924;DHT22;2987;50.884;14.818;2022-11-20T02:06:10;-4.50;99.90
5924;DHT22;2987;50.884;14.818;2022-11-20T02:08:39;-4.70;99.90
5924;DHT22;2987;50.884;14.818;2022-11-20T02:11:05;-4.60;99.90
5924;DHT22;2987;50.884;14.818;2022-11-20T02:13:33;-4.50;99.90
5924;DHT22;2987;50.884;14.818;2022-11-20T02:16:22;-4.70;99.90
5924;DHT22;2987;50.884;14.818;2022-11-20T02:18:50;-4.60;99.90
5924;DHT22;2987;50.884;14.818;2022-11-20T02:24:14;-4.50;99.90
5924;DHT22;2987;50.884;14.818;2022-11-20T02:32:00;-4.70;99.90
5924;DHT22;2987;50.884;14.818;2022-11-20T02:36:53;-4.50;99.90
5924;DHT22;2987;50.884;14.818;2022-11-20T02:39:20;-4.70;99.90
5924;DHT22;2987;50.884;14.818;2022-11-20T02:41:46;-4.70;99.90
5924;DHT22;2987;50.884;14.818;2022-11-20T02:44:12;-4.80;99.90
5924;DHT22;2987;50.884;14.818;2022-11-20T02:46:38;-4.80;99.90
5924;DHT22;2987;50.884;14.818;2022-11-20T02:49:05;-4.80;99.90
5924;DHT22;2987;50.884;14.818;2022-11-20T02:51:32;-4.60;99.90
5924;DHT22;2987;50.884;14.818;2022-11-20T02:53:59;-4.90;99.90
5924;DHT22;2987;50.884;14.818;2022-11-20T02:56:25;-4.60;99.90
5924;DHT22;2987;50.884;14.818;2022-11-20T02:58:51;-4.50;99.90
5924;DHT22;2987;50.884;14.818;2022-11-20T03:01:17;-4.70;99.90
5924;DHT22;2987;50.884;14.818;2022-11-20T03:03:43;-4.70;99.90
5924;DHT22;2987;50.884;14.818;2022-11-20T03:06:09;-4.80;99.90
5924;DHT22;2987;50.884;14.818;2022-11-20T03:08:35;-4.80;99.90
5924;DHT22;2987;50.884;14.818;2022-11-20T03:11:04;-4.80;99.90
5924;DHT22;2987;50.884;14.818;2022-11-20T03:13:31;-4.90;99.90
5924;DHT22;2987;50.884;14.818;2022-11-20T03:15:57;-4.70;99.90
5924;DHT22;2987;50.884;14.818;2022-11-20T03:18:23;-4.80;99.90
5924;DHT22;2987;50.884;14.818;2022-11-20T03:20:49;-4.90;99.90
5924;DHT22;2987;50.884;14.818;2022-11-20T03:23:15;-4.60;99.90
5924;DHT22;2987;50.884;14.818;2022-11-20T03:25:41;-4.40;99.90
5924;DHT22;2987;50.884;14.818;2022-11-20T03:28:07;-4.40;99.90
5924;DHT22;2987;50.884;14.818;2022-11-20T03:30:35;-4.40;99.90
5924;DHT22;2987;50.884;14.818;2022-11-20T03:33:01;-4.30;99.90
5924;DHT22;2987;50.884;14.818;2022-11-20T03:35:27;-4.50;99.90
5924;DHT22;2987;50.884;14.818;2022-11-20T03:37:53;-4.40;99.90
5924;DHT22;2987;50.884;14.818;2022-11-20T03:40:19;-4.30;99.90
5924;DHT22;2987;50.884;14.818;2022-11-20T03:42:45;-4.30;99.90
5924;DHT22;2987;50.884;14.818;2022-11-20T03:45:18;-4.40;99.90
5924;DHT22;2987;50.884;14.818;2022-11-20T03:47:45;-4.20;99.90
5924;DHT22;2987;50.884;14.818;2022-11-20T03:50:13;-4.40;99.90
5924;DHT22;2987;50.884;14.818;2022-11-20T03:52:40;-4.30;99.90
5924;DHT22;2987;50.884;14.818;2022-11-20T03:55:07;-4.30;99.90
5924;DHT22;2987;50.884;14.818;2022-11-20T03:57:33;-4.40;99.90
5924;DHT22;2987;50.884;14.818;2022-11-20T03:59:59;-4.20;99.90
5924;DHT22;2987;50.884;14.818;2022-11-20T04:02:25;-4.50;99.90
5924;DHT22;2987;50.884;14.818;2022-11-20T04:04:52;-4.30;99.90
5924;DHT22;2987;50.884;14.818;2022-11-20T04:07:18;-4.50;99.90
5924;DHT22;2987;50.884;14.818;2022-11-20T04:09:43;-4.50;99.90
5924;DHT22;2987;50.884;14.818;2022-11-20T04:12:09;-4.50;99.90
5924;DHT22;2987;50.884;14.818;2022-11-20T04:14:36;-4.30;99.90
5924;DHT22;2987;50.884;14.818;2022-11-20T04:17:03;-4.50;99.90
5924;DHT22;2987;50.884;14.818;2022-11-20T04:19:29;-4.40;99.90
5924;DHT22;2987;50.884;14.818;2022-11-20T04:21:55;-4.40;99.90
5924;DHT22;2987;50.884;14.818;2022-11-20T04:24:21;-4.40;99.90
5924;DHT22;2987;50.884;14.818;2022-11-20T04:26:47;-4.40;99.90
5924;DHT22;2987;50.884;14.818;2022-11-20T04:29:14;-4.40;99.90
5924;DHT22;2987;50.884;14.818;2022-11-20T04:31:39;-4.40;99.90
5924;DHT22;2987;50.884;14.818;2022-11-20T04:34:07;-4.40;99.90
5924;DHT22;2987;50.884;14.818;2022-11-20T04:36:33;-4.40;99.90
5924;DHT22;2987;50.884;14.818;2022-11-20T04:39:02;-4.30;99.90
5924;DHT22;2987;50.884;14.818;2022-11-20T04:41:31;-4.50;99.90
5924;DHT22;2987;50.884;14.818;2022-11-20T04:44:00;-4.50;99.90
5924;DHT22;2987;50.884;14.818;2022-11-20T04:46:31;-4.30;99.90
5924;DHT22;2987;50.884;14.818;2022-11-20T04:48:58;-4.50;99.90
5924;DHT22;2987;50.884;14.818;2022-11-20T04:51:25;-4.40;99.90
5924;DHT22;2987;50.884;14.818;2022-11-20T04:53:51;-4.20;99.90
5924;DHT22;2987;50.884;14.818;2022-11-20T04:56:17;-4.10;99.90
5924;DHT22;2987;50.884;14.818;2022-11-20T04:58:44;-4.10;99.90
5924;DHT22;2987;50.884;14.818;2022-11-20T05:01:14;-4.00;99.90
5924;DHT22;2987;50.884;14.818;2022-11-20T05:03:41;-4.20;99.90
5924;DHT22;2987;50.884;14.818;2022-11-20T05:06:08;-3.90;99.90
5924;DHT22;2987;50.884;14.818;2022-11-20T05:08:34;-4.10;99.90
5924;DHT22;2987;50.884;14.818;2022-11-20T05:11:02;-4.10;99.90
5924;DHT22;2987;50.884;14.818;2022-11-20T05:13:29;-4.10;99.90
5924;DHT22;2987;50.884;14.818;2022-11-20T05:15:55;-4.20;99.90
5924;DHT22;2987;50.884;14.818;2022-11-20T05:18:26;-4.10;99.90
5924;DHT22;2987;50.884;14.818;2022-11-20T09:17:32;-0.70;99.90
5924;DHT22;2987;50.884;14.818;2022-11-20T09:19:58;-0.90;99.90
5924;DHT22;2987;50.884;14.818;2022-11-20T09:22:24;-0.80;99.90
5924;DHT22;2987;50.884;14.818;2022-11-20T09:24:51;-0.80;99.90
5924;DHT22;2987;50.884;14.818;2022-11-20T09:27:17;-0.80;99.90
5924;DHT22;2987;50.884;14.818;2022-11-20T09:29:47;-0.60;99.90
5924;DHT22;2987;50.884;14.818;2022-11-20T09:32:13;-0.80;99.90
5924;DHT22;2987;50.884;14.818;2022-11-20T09:34:39;-0.70;99.90
5924;DHT22;2987;50.884;14.818;2022-11-20T09:37:05;-0.60;99.90
5924;DHT22;2987;50.884;14.818;2022-11-20T09:39:31;-0.60;99.90
5924;DHT22;2987;50.884;14.818;2022-11-20T09:45:14;-0.40;99.90
5924;DHT22;2987;50.884;14.818;2022-11-20T09:52:54;-0.50;99.90
5924;DHT22;2987;50.884;14.818;2022-11-20T09:55:25;-0.30;99.90
5924;DHT22;2987;50.884;14.818;2022-11-20T09:57:52;-0.50;99.90
5924;DHT22;2987;50.884;14.818;2022-11-20T10:00:18;-0.30;99.90
5924;DHT22;2987;50.884;14.818;2022-11-20T10:03:14;-0.50;99.90
5924;DHT22;2987;50.884;14.818;2022-11-20T10:05:47;-0.40;99.90
5924;DHT22;2987;50.884;14.818;2022-11-20T10:08:21;-0.50;99.90
5924;DHT22;2987;50.884;14.818;2022-11-20T10:10:53;-0.20;99.90
5924;DHT22;2987;50.884;14.818;2022-11-20T10:13:39;-0.40;99.90
5924;DHT22;2987;50.884;14.818;2022-11-20T10:19:18;-0.20;99.90
5924;DHT22;2987;50.884;14.818;2022-11-20T10:22:20;-0.20;99.90
5924;DHT22;2987;50.884;14.818;2022-11-20T10:30:11;0.80;99.90
5924;DHT22;2987;50.884;14.818;2022-11-20T10:32:40;1.00;99.90
5924;DHT22;2987;50.884;14.818;2022-11-20T10:35:22;1.00;99.90
5924;DHT22;2987;50.884;14.818;2022-11-20T10:37:58;0.50;99.90
5924;DHT22;2987;50.884;14.818;2022-11-20T10:40:44;0.50;99.90
5924;DHT22;2987;50.884;14.818;2022-11-20T10:43:32;0.80;99.90
5924;DHT22;2987;50.884;14.818;2022-11-20T10:46:05;0.70;99.90
5924;DHT22;2987;50.884;14.818;2022-11-20T10:48:32;1.00;99.90
5924;DHT22;2987;50.884;14.818;2022-11-20T10:56:53;2.70;99.90
5924;DHT22;2987;50.884;14.818;2022-11-20T10:59:44;3.00;99.90
5924;DHT22;2987;50.884;14.818;2022-11-20T11:07:22;3.90;99.90
5924;DHT22;2987;50.884;14.818;2022-11-20T11:09:54;3.90;99.90
5924;DHT22;2987;50.884;14.818;2022-11-20T11:12:21;3.80;99.90
5924;DHT22;2987;50.884;14.818;2022-11-20T11:14:51;3.30;99.90
5924;DHT22;2987;50.884;14.818;2022-11-20T11:17:24;3.00;99.90
5924;DHT22;2987;50.884;14.818;2022-11-20T11:22:47;2.50;99.90
5924;DHT22;2987;50.884;14.818;2022-11-20T11:25:30;1.90;99.90
5924;DHT22;2987;50.884;14.818;2022-11-20T11:30:26;1.80;99.90
5924;DHT22;2987;50.884;14.818;2022-11-20T11:33:12;1.50;99.90
5924;DHT22;2987;50.884;14.818;2022-11-20T11:35:51;1.30;99.90
5924;DHT22;2987;50.884;14.818;2022-11-20T11:38:27;1.30;99.90
5924;DHT22;2987;50.884;14.818;2022-11-20T11:40:55;1.10;99.90
5924;DHT22;2987;50.884;14.818;2022-11-20T11:43:25;1.10;99.90
5924;DHT22;2987;50.884;14.818;2022-11-20T11:46:31;0.70;99.90
5924;DHT22;2987;50.884;14.818;2022-11-20T11:49:17;0.50;99.90
5924;DHT22;2987;50.884;14.818;2022-11-20T11:54:57;0.50;99.90
5924;DHT22;2987;50.884;14.818;2022-11-20T11:57:47;0.50;99.90
5924;DHT22;2987;50.884;14.818;2022-11-20T12:02:53;0.60;99.90
5924;DHT22;2987;50.884;14.818;2022-11-20T12:05:31;0.80;99.90
5924;DHT22;2987;50.884;14.818;2022-11-20T12:08:09;0.70;99.90
5924;DHT22;2987;50.884;14.818;2022-11-20T12:10:59;0.50;99.90
5924;DHT22;2987;50.884;14.818;2022-11-20T12:16:20;0.70;99.90
5924;DHT22;2987;50.884;14.818;2022-11-20T12:18:50;0.80;99.90
5924;DHT22;2987;50.884;14.818;2022-11-20T12:21:20;0.70;99.90
5924;DHT22;2987;50.884;14.818;2022-11-20T12:27:26;0.50;99.90
5924;DHT22;2987;50.884;14.818;2022-11-20T12:30:08;0.20;99.90
5924;DHT22;2987;50.884;14.818;2022-11-20T12:36:01;0.30;99.90
5924;DHT22;2987;50.884;14.818;2022-11-20T12:38:52;0.20;99.90
5924;DHT22;2987;50.884;14.818;2022-11-20T12:53:05;0.60;99.90
5924;DHT22;2987;50.884;14.818;2022-11-20T13:01:40;0.60;99.90
5924;DHT22;2987;50.884;14.818;2022-11-20T13:09:25;0.30;99.90
5924;DHT22;2987;50.884;14.818;2022-11-20T13:12:06;0.60;99.90
5924;DHT22;2987;50.884;14.818;2022-11-20T13:14:40;0.50;99.90
5924;DHT22;2987;50.884;14.818;2022-11-20T13:17:17;0.70;99.90
5924;DHT22;2987;50.884;14.818;2022-11-20T13:19:52;0.50;99.90
5924;DHT22;2987;50.884;14.818;2022-11-20T13:22:27;1.00;99.90
5924;DHT22;2987;50.884;14.818;2022-11-20T13:24:54;0.70;99.90
5924;DHT22;2987;50.884;14.818;2022-11-20T13:27:22;1.10;99.90
5924;DHT22;2987;50.884;14.818;2022-11-20T13:30:12;0.70;99.90
5924;DHT22;2987;50.884;14.818;2022-11-20T13:32:49;0.70;99.90
5924;DHT22;2987;50.884;14.818;2022-11-20T13:35:25;0.70;99.90
5924;DHT22;2987;50.884;14.818;2022-11-20T13:38:05;0.70;99.90
5924;DHT22;2987;50.884;14.818;2022-11-20T13:40:32;1.00;99.90
5924;DHT22;2987;50.884;14.818;2022-11-20T13:48:24;0.60;99.90
5924;DHT22;2987;50.884;14.818;2022-11-20T13:56:43;0.50;99.90
5924;DHT22;2987;50.884;14.818;2022-11-20T13:59:36;0.50;99.90
5924;DHT22;2987;50.884;14.818;2022-11-20T14:02:11;0.30;99.90
5924;DHT22;2987;50.884;14.818;2022-11-20T14:04:45;0.30;99.90
5924;DHT22;2987;50.884;14.818;2022-11-20T14:07:12;0.30;99.90
5924;DHT22;2987;50.884;14.818;2022-11-20T14:09:51;0.20;99.90
5924;DHT22;2987;50.884;14.818;2022-11-20T14:12:21;0.20;99.90
5924;DHT22;2987;50.884;14.818;2022-11-20T14:14:51;0.50;99.90
5924;DHT22;2987;50.884;14.818;2022-11-20T14:17:21;0.20;99.90
5924;DHT22;2987;50.884;14.818;2022-11-20T14:19:50;0.20;99.90
5924;DHT22;2987;50.884;14.818;2022-11-20T14:22:23;0.20;99.90
5924;DHT22;2987;50.884;14.818;2022-11-20T14:25:19;0.30;99.90
5924;DHT22;2987;50.884;14.818;2022-11-20T14:27:52;0.40;99.90
5924;DHT22;2987;50.884;14.818;2022-11-20T14:30:23;0.50;99.90
5924;DHT22;2987;50.884;14.818;2022-11-20T14:32:50;0.30;99.90
5924;DHT22;2987;50.884;14.818;2022-11-20T14:35:26;0.40;99.90
5924;DHT22;2987;50.884;14.818;2022-11-20T14:37:53;0.20;99.90
5924;DHT22;2987;50.884;14.818;2022-11-20T14:40:26;0.20;99.90
5924;DHT22;2987;50.884;14.818;2022-11-20T14:42:52;0.20;99.90
5924;DHT22;2987;50.884;14.818;2022-11-20T14:45:19;0.20;99.90
5924;DHT22;2987;50.884;14.818;2022-11-20T14:47:46;0.20;99.90
5924;DHT22;2987;50.884;14.818;2022-11-20T14:50:24;0.20;99.90
5924;DHT22;2987;50.884;14.818;2022-11-20T14:52:55;0.00;99.90
5924;DHT22;2987;50.884;14.818;2022-11-20T14:55:27;0.00;99.90
5924;DHT22;2987;50.884;14.818;2022-11-20T14:57:56;0.10;99.90
5924;DHT22;2987;50.884;14.818;2022-11-20T15:00:23;0.50;99.90
5924;DHT22;2987;50.884;14.818;2022-11-20T15:02:51;0.20;99.90
5924;DHT22;2987;50.884;14.818;2022-11-20T15:05:24;0.10;99.90
5924;DHT22;2987;50.884;14.818;2022-11-20T15:08:07;0.50;99.90
5924;DHT22;2987;50.884;14.818;2022-11-20T15:10:37;0.20;99.90
5924;DHT22;2987;50.884;14.818;2022-11-20T15:13:12;0.20;99.90
5924;DHT22;2987;50.884;14.818;2022-11-20T15:15:46;0.20;99.90
5924;DHT22;2987;50.884;14.818;2022-11-20T15:18:18;0.20;99.90
5924;DHT22;2987;50.884;14.818;2022-11-20T15:20:46;0.20;99.90
5924;DHT22;2987;50.884;14.818;2022-11-20T15:23:14;0.20;99.90
5924;DHT22;2987;50.884;14.818;2022-11-20T15:25:41;0.20;99.90
5924;DHT22;2987;50.884;14.818;2022-11-20T15:28:23;0.20;99.90
5924;DHT22;2987;50.884;14.818;2022-11-20T15:30:51;0.20;99.90
5924;DHT22;2987;50.884;14.818;2022-11-20T15:33:19;0.10;99.90
5924;DHT22;2987;50.884;14.818;2022-11-20T15:35:45;0.00;99.90
5924;DHT22;2987;50.884;14.818;2022-11-20T15:38:11;0.20;99.90
5924;DHT22;2987;50.884;14.818;2022-11-20T15:40:37;0.20;99.90
5924;DHT22;2987;50.884;14.818;2022-11-20T15:43:03;0.00;99.90
5924;DHT22;2987;50.884;14.818;2022-11-20T15:45:36;0.20;99.90
5924;DHT22;2987;50.884;14.818;2022-11-20T15:48:09;0.20;99.90
5924;DHT22;2987;50.884;14.818;2022-11-20T15:50:42;0.20;99.90
5924;DHT22;2987;50.884;14.818;2022-11-20T15:53:10;0.20;99.90
5924;DHT22;2987;50.884;14.818;2022-11-20T15:55:36;0.00;99.90
5924;DHT22;2987;50.884;14.818;2022-11-20T15:58:02;0.00;99.90
5924;DHT22;2987;50.884;14.818;2022-11-20T16:00:28;0.00;99.90
5924;DHT22;2987;50.884;14.818;2022-11-20T16:02:54;0.00;99.90
5924;DHT22;2987;50.884;14.818;2022-11-20T16:05:20;0.00;99.90
5924;DHT22;2987;50.884;14.818;2022-11-20T16:07:50;0.20;99.90
5924;DHT22;2987;50.884;14.818;2022-11-20T16:10:17;0.10;99.90
5924;DHT22;2987;50.884;14.818;2022-11-20T16:12:43;0.40;99.90
5924;DHT22;2987;50.884;14.818;2022-11-20T16:15:30;0.00;99.90
5924;DHT22;2987;50.884;14.818;2022-11-20T16:18:15;0.30;99.90
5924;DHT22;2987;50.884;14.818;2022-11-20T16:20:41;0.30;99.90
5924;DHT22;2987;50.884;14.818;2022-11-20T16:23:08;0.50;99.90
5924;DHT22;2987;50.884;14.818;2022-11-20T16:25:34;0.20;99.90
5924;DHT22;2987;50.884;14.818;2022-11-20T16:28:01;0.20;99.90
5924;DHT22;2987;50.884;14.818;2022-11-20T16:30:28;0.30;99.90
5924;DHT22;2987;50.884;14.818;2022-11-20T16:32:54;0.30;99.90
5924;DHT22;2987;50.884;14.818;2022-11-20T16:35:20;0.30;99.90
5924;DHT22;2987;50.884;14.818;2022-11-20T16:37:46;0.10;99.90
5924;DHT22;2987;50.884;14.818;2022-11-20T16:40:12;0.00;99.90
5924;DHT22;2987;50.884;14.818;2022-11-20T16:42:39;0.20;99.90
5924;DHT22;2987;50.884;14.818;2022-11-20T16:45:05;0.00;99.90
5924;DHT22;2987;50.884;14.818;2022-11-20T16:47:51;0.00;99.90
5924;DHT22;2987;50.884;14.818;2022-11-20T16:50:17;0.00;99.90
5924;DHT22;2987;50.884;14.818;2022-11-20T16:52:43;0.00;99.90
5924;DHT22;2987;50.884;14.818;2022-11-20T16:55:09;0.00;99.90
5924;DHT22;2987;50.884;14.818;2022-11-20T16:57:36;0.10;99.90
5924;DHT22;2987;50.884;14.818;2022-11-20T17:00:06;0.00;99.90
5924;DHT22;2987;50.884;14.818;2022-11-20T17:02:32;0.00;99.90
5924;DHT22;2987;50.884;14.818;2022-11-20T17:04:59;0.00;99.90
5924;DHT22;2987;50.884;14.818;2022-11-20T17:07:25;0.00;99.90
5924;DHT22;2987;50.884;14.818;2022-11-20T17:09:51;0.10;99.90
5924;DHT22;2987;50.884;14.818;2022-11-20T17:12:17;0.00;99.90
5924;DHT22;2987;50.884;14.818;2022-11-20T17:14:43;-0.10;99.90
5924;DHT22;2987;50.884;14.818;2022-11-20T17:17:09;0.00;99.90
5924;DHT22;2987;50.884;14.818;2022-11-20T17:19:35;0.00;99.90
5924;DHT22;2987;50.884;14.818;2022-11-20T17:22:01;-0.10;99.90
5924;DHT22;2987;50.884;14.818;2022-11-20T17:24:27;-0.20;99.90
5924;DHT22;2987;50.884;14.818;2022-11-20T17:26:53;-0.20;99.90
5924;DHT22;2987;50.884;14.818;2022-11-20T17:29:20;-0.20;99.90
5924;DHT22;2987;50.884;14.818;2022-11-20T17:31:49;-0.40;99.90
5924;DHT22;2987;50.884;14.818;2022-11-20T17:34:16;-0.20;99.90
5924;DHT22;2987;50.884;14.818;2022-11-20T17:36:42;-0.20;99.90
5924;DHT22;2987;50.884;14.818;2022-11-20T17:39:11;-0.20;99.90
5924;DHT22;2987;50.884;14.818;2022-11-20T17:41:37;-0.40;99.90
5924;DHT22;2987;50.884;14.818;2022-11-20T17:44:04;-0.40;99.90
5924;DHT22;2987;50.884;14.818;2022-11-20T17:46:33;-0.40;99.90
5924;DHT22;2987;50.884;14.818;2022-11-20T17:49:01;-0.40;99.90
5924;DHT22;2987;50.884;14.818;2022-11-20T17:51:30;-0.50;99.90
5924;DHT22;2987;50.884;14.818;2022-11-20T17:53:59;-0.50;99.90
5924;DHT22;2987;50.884;14.818;2022-11-20T17:56:29;-0.50;99.90
5924;DHT22;2987;50.884;14.818;2022-11-20T17:59:16;-0.50;99.90
5924;DHT22;2987;50.884;14.818;2022-11-20T18:01:42;-0.50;99.90
5924;DHT22;2987;50.884;14.818;2022-11-20T18:04:08;-0.50;99.90
5924;DHT22;2987;50.884;14.818;2022-11-20T18:06:35;-0.50;99.90
5924;DHT22;2987;50.884;14.818;2022-11-20T18:09:03;-0.50;99.90
5924;DHT22;2987;50.884;14.818;2022-11-20T18:11:34;-0.50;99.90
5924;DHT22;2987;50.884;14.818;2022-11-20T18:14:03;-0.50;99.90
5924;DHT22;2987;50.884;14.818;2022-11-20T18:16:53;-0.50;99.90
5924;DHT22;2987;50.884;14.818;2022-11-20T18:19:23;-0.50;99.90
5924;DHT22;2987;50.884;14.818;2022-11-20T18:21:50;-0.50;99.90
5924;DHT22;2987;50.884;14.818;2022-11-20T18:24:17;-0.50;99.90
5924;DHT22;2987;50.884;14.818;2022-11-20T18:26:43;-0.70;99.90
5924;DHT22;2987;50.884;14.818;2022-11-20T18:29:10;-0.60;99.90
5924;DHT22;2987;50.884;14.818;2022-11-20T18:31:37;-0.60;99.90
5924;DHT22;2987;50.884;14.818;2022-11-20T18:34:04;-0.60;99.90
5924;DHT22;2987;50.884;14.818;2022-11-20T18:36:31;-0.60;99.90
5924;DHT22;2987;50.884;14.818;2022-11-20T18:39:00;-0.50;99.90
5924;DHT22;2987;50.884;14.818;2022-11-20T18:41:29;-0.70;99.90
5924;DHT22;2987;50.884;14.818;2022-11-20T18:44:21;-0.60;99.90
5924;DHT22;2987;50.884;14.818;2022-11-20T18:47:08;-0.60;99.90
5924;DHT22;2987;50.884;14.818;2022-11-20T18:49:34;-0.60;99.90
5924;DHT22;2987;50.884;14.818;2022-11-20T18:52:00;-0.50;99.90
5924;DHT22;2987;50.884;14.818;2022-11-20T18:54:26;-0.90;99.90
5924;DHT22;2987;50.884;14.818;2022-11-20T18:56:52;-0.80;99.90
5924;DHT22;2987;50.884;14.818;2022-11-20T18:59:19;-0.70;99.90
5924;DHT22;2987;50.884;14.818;2022-11-20T19:01:47;-0.80;99.90
5924;DHT22;2987;50.884;14.818;2022-11-20T19:04:15;-0.90;99.90
5924;DHT22;2987;50.884;14.818;2022-11-20T19:06:44;-1.00;99.90
5924;DHT22;2987;50.884;14.818;2022-11-20T19:09:12;-1.00;99.90
5924;DHT22;2987;50.884;14.818;2022-11-20T19:11:40;-0.90;99.90
5924;DHT22;2987;50.884;14.818;2022-11-20T19:14:07;-1.10;99.90
5924;DHT22;2987;50.884;14.818;2022-11-20T19:16:33;-1.10;99.90
5924;DHT22;2987;50.884;14.818;2022-11-20T19:19:02;-1.10;99.90
5924;DHT22;2987;50.884;14.818;2022-11-20T19:21:29;-1.00;99.90
5924;DHT22;2987;50.884;14.818;2022-11-20T19:23:57;-1.20;99.90
5924;DHT22;2987;50.884;14.818;2022-11-20T19:26:25;-1.10;99.90
5924;DHT22;2987;50.884;14.818;2022-11-20T19:28:52;-1.30;99.90
5924;DHT22;2987;50.884;14.818;2022-11-20T19:31:22;-1.20;99.90
5924;DHT22;2987;50.884;14.818;2022-11-20T19:33:54;-1.10;99.90
5924;DHT22;2987;50.884;14.818;2022-11-20T19:36:24;-1.30;99.90
5924;DHT22;2987;50.884;14.818;2022-11-20T19:38:51;-1.50;99.90
5924;DHT22;2987;50.884;14.818;2022-11-20T19:41:25;-1.50;99.90
5924;DHT22;2987;50.884;14.818;2022-11-20T19:44:07;-1.50;99.90
5924;DHT22;2987;50.884;14.818;2022-11-20T19:46:35;-1.50;99.90
5924;DHT22;2987;50.884;14.818;2022-11-20T19:49:03;-1.50;99.90
5924;DHT22;2987;50.884;14.818;2022-11-20T19:51:32;-1.50;99.90
5924;DHT22;2987;50.884;14.818;2022-11-20T19:54:01;-1.70;99.90
5924;DHT22;2987;50.884;14.818;2022-11-20T19:56:29;-1.90;99.90
5924;DHT22;2987;50.884;14.818;2022-11-20T19:58:56;-1.60;99.90
5924;DHT22;2987;50.884;14.818;2022-11-20T20:01:25;-1.50;99.90
5924;DHT22;2987;50.884;14.818;2022-11-20T20:03:53;-1.60;99.90
5924;DHT22;2987;50.884;14.818;2022-11-20T20:06:22;-1.70;99.90
5924;DHT22;2987;50.884;14.818;2022-11-20T20:08:58;-1.80;99.90
5924;DHT22;2987;50.884;14.818;2022-11-20T20:11:26;-1.90;99.90
5924;DHT22;2987;50.884;14.818;2022-11-20T20:13:53;-1.70;99.90
5924;DHT22;2987;50.884;14.818;2022-11-20T20:16:23;-2.00;99.90
5924;DHT22;2987;50.884;14.818;2022-11-20T20:18:54;-2.00;99.90
5924;DHT22;2987;50.884;14.818;2022-11-20T20:21:20;-2.00;99.90
5924;DHT22;2987;50.884;14.818;2022-11-20T20:23:51;-2.00;99.90
5924;DHT22;2987;50.884;14.818;2022-11-20T20:26:19;-2.10;99.90
5924;DHT22;2987;50.884;14.818;2022-11-20T20:28:45;-1.90;99.90
5924;DHT22;2987;50.884;14.818;2022-11-20T20:31:15;-2.20;99.90
5924;DHT22;2987;50.884;14.818;2022-11-20T20:33:42;-2.20;99.90
5924;DHT22;2987;50.884;14.818;2022-11-20T20:36:11;-2.30;99.90
5924;DHT22;2987;50.884;14.818;2022-11-20T20:38:38;-2.10;99.90
5924;DHT22;2987;50.884;14.818;2022-11-20T20:41:04;-2.10;99.90
5924;DHT22;2987;50.884;14.818;2022-11-20T20:43:31;-2.40;99.90
5924;DHT22;2987;50.884;14.818;2022-11-20T20:46:18;-2.40;99.90
5924;DHT22;2987;50.884;14.818;2022-11-20T20:48:43;-2.60;99.90
5924;DHT22;2987;50.884;14.818;2022-11-20T20:51:09;-2.60;99.90
5924;DHT22;2987;50.884;14.818;2022-11-20T20:53:36;-2.60;99.90
5924;DHT22;2987;50.884;14.818;2022-11-20T20:56:02;-2.50;99.90
5924;DHT22;2987;50.884;14.818;2022-11-20T20:58:29;-2.70;99.90
5924;DHT22;2987;50.884;14.818;2022-11-20T21:01:12;-2.50;99.90
5924;DHT22;2987;50.884;14.818;2022-11-20T21:03:39;-2.80;99.90
5924;DHT22;2987;50.884;14.818;2022-11-20T21:06:06;-2.90;99.90
5924;DHT22;2987;50.884;14.818;2022-11-20T21:08:34;-2.70;99.90
5924;DHT22;2987;50.884;14.818;2022-11-20T21:11:04;-2.90;99.90
5924;DHT22;2987;50.884;14.818;2022-11-20T21:13:32;-2.60;99.90
5924;DHT22;2987;50.884;14.818;2022-11-20T21:15:59;-2.70;99.90
5924;DHT22;2987;50.884;14.818;2022-11-20T21:18:25;-2.60;99.90
5924;DHT22;2987;50.884;14.818;2022-11-20T21:20:52;-2.70;99.90
5924;DHT22;2987;50.884;14.818;2022-11-20T21:23:39;-3.00;99.90
5924;DHT22;2987;50.884;14.818;2022-11-20T21:26:07;-2.70;99.90
5924;DHT22;2987;50.884;14.818;2022-11-20T21:28:34;-2.70;99.90
5924;DHT22;2987;50.884;14.818;2022-11-20T21:31:06;-2.60;99.90
5924;DHT22;2987;50.884;14.818;2022-11-20T21:33:39;-2.60;99.90
5924;DHT22;2987;50.884;14.818;2022-11-20T21:36:07;-2.40;99.90
5924;DHT22;2987;50.884;14.818;2022-11-20T21:38:33;-2.30;99.90
5924;DHT22;2987;50.884;14.818;2022-11-20T21:41:01;-2.10;99.90